Montgomery Regional (Dannelly Field) Airport
KMGM : rendu visible

Aérodrome :











RETROUVEZ-NOUS SUR...

 
LOGIN :

S'inscrire | Disclaimer

   EN    FR    IT 

 









Légende :    VFR   VFR Marginal   IFR   IFR Intensif   IFR Très Intensif
Visi : 
Plafond : 
>= 8 km
>= 3000ft
5 à 8 km
1000 à 3000 ft
1500m à 5 km
500 à 1000 ft
800 à 1500m
200 à 500 ft
< 800m
< 200 ft
Symboles :   Orages  Brouillard  Fortes neiges  Fortes précipitations  Vent > 20 kt






- Altitude de l'aérodrome : 221 ft
- Code IATA : MGM


KMGM - Montgomery Regional (Dannelly Field)

DERNIER METAR :
  • 191153Z AUTO 22003KT 7SM OVC095 06/04 A2993 RMK AO2 SLP135 T00560039 10061 20022 53005

METARs EXPIRÉS :
  • 191053Z AUTO 22003KT 8SM FEW095 04/03 A2991 RMK AO2 SLP127 T00440028
  • 190953Z AUTO 20003KT 6SM BR OVC090 04/03 A2990 RMK AO2 SLP125 T00440028

TAF KMGM
Valide du 19 à 12h jusqu'au 20 à 12h UTC


191139Z 1912/2012 VRB03KT P6SM OVC070
FM191700 25008G16KT P6SM SKC
FM200000 VRB02KT P6SM SKC



MET'MAP, la Météo Aéronautique d'un coup d'oeil ! - Copyright ORBIFLY Décembre 2007 - Disclaimer

ORBIFLY MET'MAP TEAM :

Programmation & Développement : Alexandra Zaïnal
Conception & Développement : Baudouin d'Aumeries
Co-Programmation & Développement : Marc-Olivier Méhu
Soutien technique & logistique : Manuel Goepfert

Contact : metmap@orbifly.com




SOURCES & CREDITS :

   NOAA       Earth
Advisory